Time;durP1;ratioP1;P1;durP2;ratioP2;P2;SDS_P1;SDS_P2;PMS_P1;PMS_P2;Temp;Humidity;BMP_temperature;BMP_pressure;BME280_temperature;BME280_humidity;BME280_pressure;Samples;Min_cycle;Max_cycle;Signal;HPM_P1;HPM_P2
2022/08/19 00:00:15;;;;;;;9.60;8.60;;;23.60;96.00;;;;;;5130554;27;20193;-39
2022/08/19 00:02:43;;;;;;;10.00;9.00;;;23.60;96.00;;;;;;5130903;27;20193;-39
2022/08/19 00:05:18;;;;;;;9.90;8.77;;;23.50;96.30;;;;;;5130332;27;20206;-39
2022/08/19 00:07:49;;;;;;;10.00;9.00;;;23.50;96.00;;;;;;5111369;27;20211;-40
2022/08/19 00:10:23;;;;;;;11.18;8.85;;;23.50;96.10;;;;;;5129873;27;20205;-40
2022/08/19 00:12:51;;;;;;;10.60;9.55;;;23.40;96.20;;;;;;5115130;27;20218;-39
2022/08/19 00:15:21;;;;;;;10.70;9.60;;;23.40;96.10;;;;;;5109815;28;20255;-39
2022/08/19 00:17:48;;;;;;;9.95;9.05;;;23.40;96.20;;;;;;5109378;28;20589;-39
2022/08/19 00:20:21;;;;;;;11.25;9.02;;;23.30;96.20;;;;;;5109641;28;20296;-39
2022/08/19 00:22:51;;;;;;;12.23;9.38;;;23.30;96.20;;;;;;5109971;28;20248;-39
2022/08/19 00:25:19;;;;;;;9.90;8.98;;;23.30;96.30;;;;;;5108413;28;20285;-40
2022/08/19 00:27:59;;;;;;;11.10;10.00;;;23.30;96.20;;;;;;5132300;27;20622;-40
2022/08/19 00:30:29;;;;;;;9.98;9.07;;;23.20;96.20;;;;;;5150500;27;20762;-42
2022/08/19 00:32:59;;;;;;;11.43;10.32;;;23.20;96.30;;;;;;5132541;27;20217;-39
2022/08/19 00:35:29;;;;;;;10.60;9.43;;;23.20;96.30;;;;;;5150700;27;20244;-39
2022/08/19 00:37:56;;;;;;;13.02;11.73;;;23.20;96.30;;;;;;5150412;27;20324;-40
2022/08/19 00:40:24;;;;;;;14.02;11.88;;;23.10;96.30;;;;;;5137036;27;20197;-39
2022/08/19 00:42:58;;;;;;;12.68;11.07;;;23.10;96.30;;;;;;5090442;27;20212;-39
2022/08/19 00:45:31;;;;;;;13.32;11.85;;;23.00;96.30;;;;;;5090444;28;20201;-39
2022/08/19 00:48:05;;;;;;;12.45;11.25;;;23.00;96.30;;;;;;5109069;28;20206;-39
2022/08/19 00:50:44;;;;;;;14.23;12.68;;;23.00;96.30;;;;;;5108943;28;20320;-39
2022/08/19 00:53:22;;;;;;;19.10;17.02;;;23.00;96.40;;;;;;5108786;28;20288;-39
2022/08/19 00:55:52;;;;;;;16.63;14.45;;;23.00;96.50;;;;;;5090501;28;20581;-39
2022/08/19 00:58:27;;;;;;;18.88;16.50;;;22.90;96.40;;;;;;5108402;27;20240;-39
2022/08/19 01:00:54;;;;;;;21.30;18.17;;;22.90;96.50;;;;;;5114992;27;20611;-45
2022/08/19 01:03:27;;;;;;;20.35;17.88;;;22.90;96.40;;;;;;5118676;27;20357;-46
2022/08/19 01:05:57;;;;;;;24.73;20.13;;;22.90;96.40;;;;;;5108546;28;20218;-45
2022/08/19 01:08:29;;;;;;;21.95;19.65;;;22.90;96.50;;;;;;5116503;27;20748;-48
2022/08/19 01:10:59;;;;;;;23.02;20.55;;;22.90;96.50;;;;;;5117822;27;20234;-45
2022/08/19 01:13:30;;;;;;;26.80;22.10;;;22.90;96.40;;;;;;5109302;27;20230;-45
2022/08/19 01:16:18;;;;;;;27.38;22.48;;;22.90;96.50;;;;;;5113713;27;20212;-45
2022/08/19 01:18:45;;;;;;;28.75;24.05;;;22.90;96.40;;;;;;5110121;28;20194;-46
2022/08/19 01:21:31;;;;;;;28.38;23.45;;;22.90;96.30;;;;;;5091556;28;20293;-44
2022/08/19 01:24:00;;;;;;;28.63;23.48;;;23.00;96.60;;;;;;5110405;28;20247;-44
2022/08/19 01:26:28;;;;;;;29.75;25.38;;;22.90;96.50;;;;;;5112455;28;20210;-46
2022/08/19 01:29:00;;;;;;;32.75;25.70;;;22.90;96.50;;;;;;5132544;27;20202;-45
2022/08/19 01:31:30;;;;;;;28.88;24.23;;;22.90;96.60;;;;;;5119705;28;20218;-45
2022/08/19 01:34:00;;;;;;;30.17;24.55;;;22.90;96.50;;;;;;5092817;28;20209;-45
2022/08/19 01:36:32;;;;;;;33.72;26.23;;;22.90;96.60;;;;;;5129196;28;20244;-44
2022/08/19 01:39:03;;;;;;;31.10;26.02;;;22.90;96.50;;;;;;5128751;28;20221;-44
2022/08/19 01:41:34;;;;;;;32.17;26.40;;;22.90;96.60;;;;;;5126348;28;20665;-45
2022/08/19 01:44:04;;;;;;;33.25;27.75;;;22.90;96.50;;;;;;5128720;28;20202;-45
2022/08/19 01:46:47;;;;;;;34.78;28.25;;;22.90;96.60;;;;;;5129021;28;20223;-45
2022/08/19 01:49:18;;;;;;;34.28;27.33;;;22.80;96.60;;;;;;5116973;28;20218;-45
2022/08/19 01:51:46;;;;;;;33.92;27.98;;;22.80;96.60;;;;;;5116763;28;20235;-44
2022/08/19 01:54:15;;;;;;;33.58;27.63;;;22.80;96.60;;;;;;5128718;28;20201;-44
2022/08/19 01:57:02;;;;;;;34.58;27.98;;;22.80;96.70;;;;;;5098372;27;20236;-44
2022/08/19 01:59:30;;;;;;;33.75;27.55;;;22.70;97.10;;;;;;5110487;28;20656;-44
2022/08/19 02:02:00;;;;;;;36.50;28.20;;;22.70;96.70;;;;;;5110864;28;20291;-44
2022/08/19 02:04:27;;;;;;;38.53;29.35;;;22.60;96.70;;;;;;5112296;28;20226;-43
2022/08/19 02:06:54;;;;;;;31.95;27.23;;;22.60;96.80;;;;;;5109660;28;20251;-45
2022/08/19 02:09:26;;;;;;;37.53;30.00;;;22.60;96.80;;;;;;5103208;28;20229;-45
2022/08/19 02:11:58;;;;;;;34.05;28.63;;;22.60;96.80;;;;;;5097602;28;20286;-44
2022/08/19 02:14:27;;;;;;;36.88;28.85;;;22.60;96.80;;;;;;5091261;28;20226;-44
2022/08/19 02:16:57;;;;;;;36.40;29.08;;;22.50;96.80;;;;;;5091550;28;20234;-44
2022/08/19 02:19:27;;;;;;;37.67;30.10;;;22.50;96.80;;;;;;5091417;28;20278;-45
2022/08/19 02:21:54;;;;;;;39.65;31.65;;;22.50;97.00;;;;;;5092060;28;20207;-45
2022/08/19 02:24:23;;;;;;;38.60;29.17;;;22.50;96.90;;;;;;5091772;28;20293;-44
2022/08/19 02:26:51;;;;;;;34.92;29.00;;;22.50;97.00;;;;;;5108994;28;20210;-45
2022/08/19 02:29:18;;;;;;;35.28;26.77;;;22.40;96.90;;;;;;5111374;28;20244;-44
2022/08/19 02:31:51;;;;;;;34.30;27.33;;;22.40;96.90;;;;;;5112043;28;20233;-46
2022/08/19 02:34:18;;;;;;;36.45;27.48;;;22.40;96.90;;;;;;5112111;28;20289;-39
2022/08/19 02:36:46;;;;;;;32.95;27.50;;;22.40;96.90;;;;;;5111791;28;20314;-39
2022/08/19 02:39:21;;;;;;;34.60;27.45;;;22.40;96.90;;;;;;5107693;28;20191;-39
2022/08/19 02:41:49;;;;;;;32.88;27.42;;;22.40;96.90;;;;;;5105220;28;20714;-39
2022/08/19 02:44:19;;;;;;;35.70;26.25;;;22.30;96.90;;;;;;5109827;28;20194;-39
2022/08/19 02:46:59;;;;;;;33.78;28.05;;;22.30;96.90;;;;;;5111515;28;20213;-39
2022/08/19 02:49:27;;;;;;;32.17;25.38;;;22.20;96.90;;;;;;5111330;28;20245;-40
2022/08/19 02:51:56;;;;;;;33.13;26.48;;;22.20;96.90;;;;;;5111104;28;20236;-39
2022/08/19 02:54:23;;;;;;;33.50;25.33;;;22.20;97.00;;;;;;5111546;28;20210;-39
2022/08/19 02:56:51;;;;;;;30.38;24.35;;;22.20;97.00;;;;;;5108512;28;20276;-39
2022/08/19 02:59:18;;;;;;;31.90;24.75;;;22.10;96.80;;;;;;5120242;27;20230;-39
2022/08/19 03:01:51;;;;;;;30.25;24.20;;;22.10;96.90;;;;;;5111045;28;20190;-39
2022/08/19 03:04:19;;;;;;;29.50;23.75;;;22.10;97.00;;;;;;5111361;28;20327;-39
2022/08/19 03:06:49;;;;;;;28.83;23.35;;;22.00;96.90;;;;;;5110402;28;20586;-39
2022/08/19 03:09:19;;;;;;;27.58;22.67;;;22.00;97.00;;;;;;5110809;28;20194;-39
2022/08/19 03:11:48;;;;;;;27.38;22.48;;;22.00;97.00;;;;;;5102320;28;20244;-39
2022/08/19 03:14:21;;;;;;;25.75;21.38;;;21.90;96.90;;;;;;5111055;27;20210;-39
2022/08/19 03:16:51;;;;;;;26.13;21.38;;;21.90;96.90;;;;;;5119717;27;20652;-39
2022/08/19 03:19:21;;;;;;;24.70;20.75;;;21.90;97.00;;;;;;5130930;27;20233;-39
2022/08/19 03:21:49;;;;;;;24.77;21.27;;;21.80;97.00;;;;;;5131136;27;20196;-39
2022/08/19 03:24:20;;;;;;;22.98;19.50;;;21.80;97.00;;;;;;5112986;27;20266;-39
2022/08/19 03:26:51;;;;;;;24.30;21.25;;;21.80;97.00;;;;;;5132611;27;20229;-39
2022/08/19 03:29:21;;;;;;;26.77;21.10;;;21.70;97.10;;;;;;5151777;27;20200;-38
2022/08/19 03:32:05;;;;;;;25.05;21.15;;;21.70;97.10;;;;;;5116199;27;20213;-40
2022/08/19 03:34:34;;;;;;;24.63;20.58;;;21.70;97.20;;;;;;5125866;27;20304;-40
2022/08/19 03:37:11;;;;;;;23.98;20.85;;;21.60;97.10;;;;;;5131698;27;20245;-39
2022/08/19 03:39:41;;;;;;;25.52;21.17;;;21.50;97.10;;;;;;5124482;27;20275;-38
2022/08/19 03:42:12;;;;;;;24.83;21.85;;;21.50;97.10;;;;;;5109544;28;20300;-39
2022/08/19 03:44:59;;;;;;;25.27;21.85;;;21.40;97.00;;;;;;5110265;28;20206;-38
2022/08/19 03:47:26;;;;;;;24.70;21.15;;;21.50;97.40;;;;;;5110986;27;20621;-38
2022/08/19 03:49:54;;;;;;;25.15;22.45;;;21.40;97.20;;;;;;5111584;27;20226;-38
2022/08/19 03:52:24;;;;;;;25.38;21.80;;;21.30;97.20;;;;;;5112057;27;20284;-38
2022/08/19 03:54:54;;;;;;;27.23;21.80;;;21.30;97.30;;;;;;5130877;27;20209;-38
2022/08/19 03:57:21;;;;;;;23.98;20.98;;;21.30;97.30;;;;;;5111439;27;20245;-38
2022/08/19 04:00:01;;;;;;;23.90;20.63;;;21.30;97.20;;;;;;5130596;27;20206;-39
2022/08/19 04:02:43;;;;;;;24.67;20.45;;;21.20;97.20;;;;;;5130348;27;20205;-39
2022/08/19 04:05:29;;;;;;;24.50;20.08;;;21.20;97.10;;;;;;5130109;27;20616;-45
2022/08/19 04:07:58;;;;;;;24.88;20.38;;;21.20;97.10;;;;;;5120110;27;20586;-43
2022/08/19 04:10:28;;;;;;;23.23;19.95;;;21.20;97.20;;;;;;5109854;28;20204;-43
2022/08/19 04:13:00;;;;;;;22.85;18.67;;;21.10;97.10;;;;;;5122740;27;20255;-44
2022/08/19 04:15:33;;;;;;;24.25;19.58;;;21.10;97.00;;;;;;5112427;27;20753;-44
2022/08/19 04:18:07;;;;;;;22.88;20.00;;;21.10;97.40;;;;;;5130208;27;20225;-45
2022/08/19 04:20:45;;;;;;;21.75;19.27;;;21.10;97.40;;;;;;5129864;27;20650;-44
2022/08/19 04:23:18;;;;;;;25.40;20.10;;;21.10;97.20;;;;;;5110099;27;20221;-44
2022/08/19 04:25:47;;;;;;;23.33;19.20;;;21.00;97.00;;;;;;5126509;27;20209;-46
2022/08/19 04:28:20;;;;;;;25.25;18.83;;;21.00;97.10;;;;;;5132578;27;20205;-44
2022/08/19 04:30:55;;;;;;;23.65;19.92;;;21.00;97.10;;;;;;5109359;28;20255;-45
2022/08/19 04:33:24;;;;;;;21.70;18.75;;;21.00;97.20;;;;;;5109297;28;20206;-44
2022/08/19 04:35:58;;;;;;;22.50;18.33;;;20.90;97.10;;;;;;5109570;28;20582;-44
2022/08/19 04:38:27;;;;;;;24.20;19.08;;;20.90;97.10;;;;;;5092146;28;20555;-45
2022/08/19 04:43:41;;;;;;;23.88;19.00;;;20.90;97.10;;;;;;5107478;27;20208;-44
2022/08/19 04:46:10;;;;;;;21.98;19.58;;;20.90;97.20;;;;;;5129655;27;20244;-43
2022/08/19 04:48:59;;;;;;;21.75;18.55;;;20.90;97.20;;;;;;5129580;27;20235;-43
2022/08/19 04:51:41;;;;;;;22.08;19.27;;;20.80;97.10;;;;;;5113042;27;20571;-44
2022/08/19 04:54:09;;;;;;;23.30;18.38;;;20.80;97.20;;;;;;5111180;27;20679;-46
2022/08/19 04:56:36;;;;;;;23.50;19.33;;;20.80;97.20;;;;;;5109768;28;20286;-44
2022/08/19 04:59:04;;;;;;;22.30;18.80;;;20.70;97.20;;;;;;5109181;28;20249;-44
2022/08/19 05:01:36;;;;;;;25.17;19.42;;;20.70;97.10;;;;;;5129512;27;20246;-42
2022/08/19 05:04:09;;;;;;;23.40;19.13;;;20.80;97.30;;;;;;5129835;27;20213;-42
2022/08/19 05:06:36;;;;;;;22.40;18.98;;;20.70;97.30;;;;;;5129364;27;20572;-43
2022/08/19 05:09:04;;;;;;;24.73;19.45;;;20.70;97.30;;;;;;5109817;27;20204;-44
2022/08/19 05:11:38;;;;;;;24.27;19.10;;;20.70;97.50;;;;;;5108202;28;20662;-42
2022/08/19 05:14:08;;;;;;;22.40;18.17;;;20.70;97.60;;;;;;5109289;28;20609;-43
2022/08/19 05:16:36;;;;;;;23.42;18.00;;;20.70;97.50;;;;;;5106708;28;20677;-44
2022/08/19 05:24:37;;;;;;;23.90;18.92;;;20.70;97.40;;;;;;5108506;28;20198;-43
2022/08/19 05:27:27;;;;;;;20.63;17.55;;;20.70;97.60;;;;;;5122661;27;20936;-43
2022/08/19 05:29:54;;;;;;;23.08;16.70;;;20.70;97.60;;;;;;5131226;27;20209;-45
2022/08/19 05:32:24;;;;;;;46.13;20.38;;;20.70;97.50;;;;;;5118305;27;20209;-44
2022/08/19 05:34:54;;;;;;;29.38;16.67;;;20.70;97.80;;;;;;5133279;27;20217;-44
2022/08/19 05:37:22;;;;;;;23.40;16.80;;;20.70;97.50;;;;;;5133120;27;20638;-44
2022/08/19 05:39:52;;;;;;;19.10;16.15;;;20.70;97.50;;;;;;5120818;27;20237;-43
2022/08/19 05:42:20;;;;;;;23.58;16.63;;;20.70;97.50;;;;;;5112035;28;20239;-43
2022/08/19 05:44:52;;;;;;;26.23;16.15;;;20.80;97.60;;;;;;5112696;28;20191;-44
2022/08/19 05:47:20;;;;;;;26.25;16.50;;;20.80;97.60;;;;;;5113083;27;20684;-44
2022/08/19 05:49:49;;;;;;;23.40;16.85;;;20.80;97.60;;;;;;5121355;27;20258;-44
2022/08/19 05:52:18;;;;;;;22.92;15.80;;;20.80;97.60;;;;;;5133391;27;20200;-45
2022/08/19 05:54:51;;;;;;;23.25;16.15;;;20.80;97.50;;;;;;5133120;27;20203;-43
2022/08/19 05:57:19;;;;;;;25.48;16.58;;;20.80;97.60;;;;;;5132162;27;20575;-43
2022/08/19 05:59:51;;;;;;;24.73;17.25;;;20.80;97.60;;;;;;5132478;27;20302;-44
2022/08/19 06:02:30;;;;;;;21.45;16.92;;;20.80;97.70;;;;;;5132795;27;20296;-46
2022/08/19 06:04:58;;;;;;;22.85;16.20;;;20.90;97.90;;;;;;5132048;27;20217;-46
2022/08/19 06:07:28;;;;;;;24.95;16.85;;;20.90;97.80;;;;;;5117238;27;20557;-45
2022/08/19 06:09:58;;;;;;;25.42;17.30;;;20.90;97.70;;;;;;5111922;28;20197;-45
2022/08/19 06:12:34;;;;;;;22.00;17.33;;;21.00;97.70;;;;;;5116883;27;20201;-43
2022/08/19 06:15:07;;;;;;;24.75;17.65;;;21.00;97.80;;;;;;5132689;27;20209;-45
2022/08/19 06:17:35;;;;;;;22.20;16.08;;;21.00;97.70;;;;;;5132855;27;20602;-44
2022/08/19 06:20:09;;;;;;;23.27;17.10;;;21.10;97.80;;;;;;5130702;27;20888;-42
2022/08/19 06:22:41;;;;;;;25.23;16.30;;;21.10;97.80;;;;;;5130282;27;20208;-43
2022/08/19 06:25:14;;;;;;;22.45;16.75;;;21.20;97.80;;;;;;5132362;27;20703;-43
2022/08/19 06:27:41;;;;;;;20.42;16.15;;;21.20;97.90;;;;;;5141128;27;20550;-43
2022/08/19 06:30:29;;;;;;;22.13;16.23;;;21.20;97.90;;;;;;5153615;27;20193;-42
2022/08/19 06:32:56;;;;;;;19.50;16.13;;;21.20;97.90;;;;;;5152641;27;20201;-42
2022/08/19 06:35:26;;;;;;;29.60;16.70;;;21.30;97.90;;;;;;5152830;27;20188;-42
2022/08/19 06:37:54;;;;;;;30.90;16.48;;;21.30;97.90;;;;;;5134090;27;20258;-42
2022/08/19 06:40:27;;;;;;;21.20;15.48;;;21.40;98.00;;;;;;5108069;27;20255;-45
2022/08/19 06:43:00;;;;;;;25.45;16.17;;;21.40;98.10;;;;;;5112854;27;20195;-42
2022/08/19 06:45:32;;;;;;;20.35;15.68;;;21.40;98.10;;;;;;5131929;27;20201;-43
2022/08/19 06:48:01;;;;;;;24.40;16.45;;;21.50;98.10;;;;;;5113863;27;20557;-43
2022/08/19 06:50:29;;;;;;;20.23;14.98;;;21.50;98.20;;;;;;5113558;27;20206;-43
2022/08/19 06:53:07;;;;;;;19.67;15.60;;;21.60;98.20;;;;;;5114528;27;20216;-43
2022/08/19 06:55:37;;;;;;;18.00;13.88;;;21.60;98.20;;;;;;5130885;27;20202;-38
2022/08/19 06:58:05;;;;;;;17.33;13.52;;;21.60;98.20;;;;;;5100364;28;20245;-38
2022/08/19 07:00:35;;;;;;;19.05;13.23;;;21.70;98.30;;;;;;5111297;28;20243;-38
2022/08/19 07:03:04;;;;;;;16.25;13.25;;;21.80;98.40;;;;;;5110997;28;20205;-37
2022/08/19 07:05:39;;;;;;;19.58;14.05;;;21.80;98.40;;;;;;5111153;28;20198;-37
2022/08/19 07:08:14;;;;;;;19.45;14.27;;;21.90;98.50;;;;;;5105985;27;20246;-38
2022/08/19 07:10:49;;;;;;;21.17;13.45;;;21.90;98.50;;;;;;5131405;27;20197;-38
2022/08/19 07:13:19;;;;;;;18.00;12.93;;;22.00;98.50;;;;;;5130714;27;20572;-39
2022/08/19 07:15:50;;;;;;;14.43;11.75;;;22.00;98.60;;;;;;5112909;27;20253;-38
2022/08/19 07:18:23;;;;;;;16.45;11.45;;;22.00;98.60;;;;;;5092600;28;20232;-39
2022/08/19 07:21:13;;;;;;;16.48;11.95;;;22.00;98.60;;;;;;5110828;27;20229;-38
2022/08/19 07:23:41;;;;;;;13.90;11.15;;;22.10;98.60;;;;;;5110556;28;20228;-38
2022/08/19 07:26:38;;;;;;;14.80;10.88;;;22.10;98.60;;;;;;5110263;28;20207;-44
2022/08/19 07:29:11;;;;;;;13.52;9.80;;;22.10;98.60;;;;;;5110475;27;20914;-45
2022/08/19 07:31:39;;;;;;;13.57;9.00;;;22.10;98.90;;;;;;5118326;27;20217;-42
2022/08/19 07:34:13;;;;;;;13.85;10.10;;;22.10;98.60;;;;;;5130811;27;20198;-44
2022/08/19 07:36:42;;;;;;;12.88;7.90;;;22.10;99.00;;;;;;5131283;27;20206;-45
2022/08/19 07:39:24;;;;;;;12.80;7.90;;;22.20;98.80;;;;;;5130869;27;20217;-44
2022/08/19 07:41:52;;;;;;;8.98;6.65;;;22.30;99.10;;;;;;5112368;27;20193;-44
2022/08/19 07:44:24;;;;;;;10.13;6.65;;;22.40;99.00;;;;;;5130626;27;20630;-45
2022/08/19 07:46:55;;;;;;;10.70;6.00;;;22.40;99.10;;;;;;5129762;27;20212;-44
2022/08/19 07:49:23;;;;;;;7.40;5.40;;;22.50;99.10;;;;;;5115892;27;20218;-44
2022/08/19 07:52:01;;;;;;;9.82;5.28;;;22.60;99.10;;;;;;5109798;28;20202;-45
2022/08/19 07:54:34;;;;;;;9.85;5.18;;;22.60;99.20;;;;;;5091854;28;20198;-38
2022/08/19 07:57:02;;;;;;;9.38;4.18;;;22.70;99.10;;;;;;5109347;28;20291;-38
2022/08/19 07:59:32;;;;;;;7.40;4.15;;;22.80;99.30;;;;;;5109069;28;20727;-38
2022/08/19 08:02:02;;;;;;;10.02;4.13;;;22.80;99.30;;;;;;5110162;27;20263;-38
2022/08/19 08:10:15;;;;;;;4.32;3.53;;;23.00;99.20;;;;;;5130631;27;20213;-38
2022/08/19 08:12:52;;;;;;;3.70;2.95;;;23.10;99.30;;;;;;5129139;27;20236;-38
2022/08/19 08:15:40;;;;;;;6.40;4.25;;;23.20;99.30;;;;;;5113479;27;20206;-38
2022/08/19 08:18:11;;;;;;;7.43;3.80;;;23.20;99.40;;;;;;5092218;28;21033;-39
2022/08/19 08:20:40;;;;;;;6.57;3.60;;;23.30;99.40;;;;;;5091062;27;20198;-38
2022/08/19 08:23:24;;;;;;;6.22;3.45;;;23.30;99.40;;;;;;5117076;27;20298;-38
2022/08/19 08:25:54;;;;;;;9.77;3.90;;;23.40;99.40;;;;;;5090969;28;20198;-38
2022/08/19 08:28:25;;;;;;;5.35;3.70;;;23.40;99.40;;;;;;5139359;27;20265;-39
2022/08/19 08:30:58;;;;;;;9.23;4.25;;;23.40;99.50;;;;;;5150765;27;20197;-39
2022/08/19 08:33:28;;;;;;;6.30;4.40;;;23.40;99.50;;;;;;5150398;27;20201;-38
2022/08/19 08:36:08;;;;;;;7.70;4.03;;;23.50;99.50;;;;;;5129377;27;20196;-38
2022/08/19 08:38:41;;;;;;;8.13;4.35;;;23.50;99.50;;;;;;5109198;28;20259;-38
2022/08/19 08:41:20;;;;;;;7.80;4.28;;;23.60;99.60;;;;;;5129004;27;20205;-38
2022/08/19 08:43:52;;;;;;;12.23;5.13;;;23.60;99.70;;;;;;5129336;27;20289;-38
2022/08/19 08:46:40;;;;;;;5.10;4.22;;;23.70;99.60;;;;;;5129180;27;20689;-39
2022/08/19 08:49:33;;;;;;;4.75;3.75;;;23.80;99.70;;;;;;5129571;27;20201;-38
2022/08/19 08:52:06;;;;;;;7.03;4.53;;;23.80;99.60;;;;;;5110985;27;20559;-38
2022/08/19 08:54:44;;;;;;;6.55;4.07;;;23.90;99.60;;;;;;5114497;27;20271;-37
2022/08/19 08:57:36;;;;;;;8.07;4.20;;;23.90;99.60;;;;;;5117639;27;20237;-38
2022/08/19 09:00:14;;;;;;;5.75;4.28;;;24.00;99.80;;;;;;5129406;27;20252;-39
2022/08/19 09:02:43;;;;;;;8.02;4.65;;;24.00;99.50;;;;;;5128836;27;20232;-37
2022/08/19 09:05:20;;;;;;;7.68;4.45;;;24.10;99.50;;;;;;5128707;27;20201;-38
2022/08/19 09:08:10;;;;;;;5.53;3.80;;;24.00;99.50;;;;;;5101894;28;20412;-38
2022/08/19 09:10:53;;;;;;;5.47;3.60;;;24.00;99.60;;;;;;5115834;27;20695;-37
2022/08/19 09:13:24;;;;;;;5.45;4.30;;;24.00;99.60;;;;;;5122732;28;20325;-38
2022/08/19 09:16:01;;;;;;;5.38;3.78;;;24.10;99.70;;;;;;5108985;27;20208;-37
2022/08/19 09:18:53;;;;;;;7.38;4.32;;;24.20;99.60;;;;;;5110449;28;20251;-37
2022/08/19 09:21:27;;;;;;;6.00;3.90;;;24.30;99.60;;;;;;5128723;28;20309;-37
2022/08/19 09:24:08;;;;;;;4.47;3.40;;;24.30;99.60;;;;;;5129174;28;20213;-37
2022/08/19 09:26:37;;;;;;;4.55;3.30;;;24.30;99.60;;;;;;5110655;28;20660;-37
2022/08/19 09:29:21;;;;;;;4.53;3.10;;;24.30;99.80;;;;;;5107651;28;20202;-36
2022/08/19 09:31:51;;;;;;;4.25;2.85;;;24.40;99.90;;;;;;5108588;28;20233;-37
2022/08/19 09:34:22;;;;;;;4.63;3.25;;;24.40;99.90;;;;;;5107978;28;20246;-36
2022/08/19 09:36:52;;;;;;;11.57;3.83;;;24.50;99.90;;;;;;5107994;28;20278;-37
2022/08/19 09:39:21;;;;;;;7.35;3.20;;;24.60;99.90;;;;;;5090483;28;20677;-37
2022/08/19 09:41:49;;;;;;;3.85;3.15;;;24.60;99.90;;;;;;5107900;28;20210;-37
2022/08/19 09:44:20;;;;;;;4.97;2.97;;;24.70;99.90;;;;;;5109063;28;20680;-38
2022/08/19 09:46:48;;;;;;;4.78;3.00;;;24.70;99.90;;;;;;5090343;28;20629;-37
2022/08/19 09:49:17;;;;;;;7.20;3.08;;;24.70;99.90;;;;;;5108150;28;20210;-37
2022/08/19 09:51:48;;;;;;;5.82;3.35;;;24.80;99.80;;;;;;5108376;28;20228;-38
2022/08/19 09:54:18;;;;;;;7.25;3.30;;;24.90;99.90;;;;;;5108190;28;20222;-37
2022/08/19 09:56:54;;;;;;;3.30;3.00;;;24.90;99.90;;;;;;5107586;28;20728;-37
2022/08/19 09:59:22;;;;;;;3.38;2.72;;;25.00;99.90;;;;;;5089291;28;20238;-37
2022/08/19 10:01:50;;;;;;;4.35;2.97;;;25.00;99.90;;;;;;5108095;28;20214;-37
2022/08/19 10:04:21;;;;;;;8.00;3.00;;;25.10;99.90;;;;;;5108384;28;20206;-37
2022/08/19 10:06:51;;;;;;;4.57;2.83;;;25.10;99.90;;;;;;5122509;28;20209;-37
2022/08/19 10:09:21;;;;;;;3.72;2.70;;;25.20;99.90;;;;;;5110376;28;20608;-37
2022/08/19 10:12:02;;;;;;;4.50;3.53;;;25.20;99.90;;;;;;5128276;28;20193;-37
2022/08/19 10:14:33;;;;;;;3.70;3.15;;;25.20;99.90;;;;;;5112252;28;20267;-38
2022/08/19 10:17:02;;;;;;;3.55;3.08;;;25.30;99.80;;;;;;5109517;28;20237;-37
2022/08/19 10:19:50;;;;;;;5.38;3.53;;;25.30;99.80;;;;;;5112754;27;20237;-36
2022/08/19 10:22:22;;;;;;;8.02;3.67;;;25.30;99.90;;;;;;5125559;27;20194;-37
2022/08/19 10:24:52;;;;;;;5.68;3.70;;;25.30;99.80;;;;;;5132126;27;20288;-41
2022/08/19 10:27:20;;;;;;;5.63;4.50;;;25.40;99.90;;;;;;5137863;27;20201;-38
2022/08/19 10:29:47;;;;;;;4.70;2.97;;;25.40;99.80;;;;;;5133989;27;20217;-38
2022/08/19 10:32:17;;;;;;;5.40;3.42;;;25.50;99.90;;;;;;5134438;27;20201;-37
2022/08/19 10:35:01;;;;;;;4.78;3.80;;;25.50;99.90;;;;;;5149517;27;20208;-38
2022/08/19 10:37:32;;;;;;;4.40;3.10;;;25.60;99.80;;;;;;5111314;28;20260;-43
2022/08/19 10:40:02;;;;;;;5.47;3.45;;;25.50;99.80;;;;;;5130635;27;20282;-43
2022/08/19 10:42:30;;;;;;;7.00;3.47;;;25.60;99.70;;;;;;5131189;27;20193;-43
2022/08/19 10:44:58;;;;;;;10.40;4.07;;;25.60;99.80;;;;;;5131444;27;20644;-45
2022/08/19 10:47:29;;;;;;;5.05;2.92;;;25.70;99.50;;;;;;5131450;27;20254;-43
2022/08/19 10:52:57;;;;;;;3.92;3.20;;;25.70;99.60;;;;;;5122384;27;20237;-43
2022/08/19 10:58:16;;;;;;;3.70;3.17;;;25.80;99.70;;;;;;5130399;27;20244;-42
2022/08/19 11:00:59;;;;;;;5.80;3.80;;;25.80;99.70;;;;;;5131325;27;20217;-43
2022/08/19 11:03:30;;;;;;;6.43;3.13;;;25.90;99.70;;;;;;5131579;27;20205;-44
2022/08/19 11:06:08;;;;;;;4.47;3.03;;;26.00;99.90;;;;;;5129182;27;20258;-42
2022/08/19 11:08:38;;;;;;;6.35;2.80;;;26.10;99.70;;;;;;5130822;27;20349;-42
2022/08/19 11:11:10;;;;;;;4.30;2.95;;;26.10;99.70;;;;;;5130813;27;20564;-42
2022/08/19 11:13:42;;;;;;;4.10;3.00;;;26.20;99.60;;;;;;5095830;28;20202;-42
2022/08/19 11:16:18;;;;;;;4.10;3.00;;;26.20;99.70;;;;;;5125539;27;20669;-43
2022/08/19 11:18:49;;;;;;;3.35;2.70;;;26.20;99.30;;;;;;5112216;27;20739;-43
2022/08/19 11:21:27;;;;;;;3.78;2.30;;;26.30;99.60;;;;;;5131126;27;20297;-43
2022/08/19 11:24:00;;;;;;;3.05;2.40;;;26.30;99.60;;;;;;5131082;27;20250;-43
2022/08/19 11:26:31;;;;;;;2.75;2.35;;;26.30;99.70;;;;;;5125697;27;20206;-43
2022/08/19 11:29:03;;;;;;;2.55;2.35;;;26.30;99.70;;;;;;5125422;27;20198;-47
2022/08/19 11:31:38;;;;;;;4.90;2.45;;;26.30;99.80;;;;;;5110418;28;20201;-38
2022/08/19 11:34:08;;;;;;;5.43;2.70;;;26.30;99.80;;;;;;5110147;28;20225;-38
2022/08/19 11:36:38;;;;;;;4.38;2.45;;;26.30;99.80;;;;;;5110308;28;20225;-38
2022/08/19 11:39:07;;;;;;;5.53;2.80;;;26.30;99.70;;;;;;5092029;28;20214;-37
2022/08/19 11:41:35;;;;;;;4.90;2.95;;;26.30;99.70;;;;;;5110234;28;20198;-37
2022/08/19 11:44:04;;;;;;;6.60;2.90;;;26.40;99.40;;;;;;5111900;27;20553;-38
2022/08/19 11:46:34;;;;;;;4.85;2.80;;;26.40;99.40;;;;;;5105246;28;20205;-38
2022/08/19 11:49:02;;;;;;;7.38;3.00;;;26.40;99.80;;;;;;5110022;28;20240;-37
2022/08/19 11:51:31;;;;;;;3.70;2.92;;;26.40;99.60;;;;;;5110343;28;20299;-37
2022/08/19 11:54:07;;;;;;;5.28;3.28;;;26.30;99.50;;;;;;5109969;28;20194;-37
2022/08/19 11:56:34;;;;;;;4.25;3.17;;;26.40;99.60;;;;;;5091737;28;20210;-40
2022/08/19 11:59:03;;;;;;;5.07;3.25;;;26.30;99.40;;;;;;5108842;28;20230;-38
2022/08/19 12:01:36;;;;;;;5.97;3.17;;;26.30;99.60;;;;;;5110928;27;20206;-38
2022/08/19 12:04:06;;;;;;;13.85;3.85;;;26.30;99.60;;;;;;5121721;27;20285;-38
2022/08/19 12:06:34;;;;;;;4.13;3.40;;;26.30;99.70;;;;;;5130742;27;20217;-38
2022/08/19 12:09:08;;;;;;;6.28;3.42;;;26.40;99.80;;;;;;5130223;27;20238;-38
2022/08/19 12:11:39;;;;;;;9.05;3.83;;;26.50;99.70;;;;;;5112135;27;20202;-37
2022/08/19 12:14:10;;;;;;;6.55;4.07;;;26.50;99.70;;;;;;5124956;27;20591;-38
2022/08/19 12:16:41;;;;;;;6.70;4.07;;;26.50;99.70;;;;;;5109250;28;20193;-38
2022/08/19 12:19:16;;;;;;;6.88;4.50;;;26.50;99.50;;;;;;5129794;27;20312;-38
2022/08/19 12:21:52;;;;;;;11.15;4.88;;;26.50;99.50;;;;;;5112191;27;20301;-44
2022/08/19 12:24:22;;;;;;;5.90;5.30;;;26.50;99.50;;;;;;5109657;28;20304;-44
2022/08/19 12:26:55;;;;;;;5.07;4.57;;;26.50;99.10;;;;;;5116353;27;20240;-44
2022/08/19 12:29:32;;;;;;;7.45;5.43;;;26.50;99.40;;;;;;5129530;27;20219;-45
2022/08/19 12:32:02;;;;;;;5.78;5.28;;;26.50;99.40;;;;;;5130188;27;20227;-44
2022/08/19 12:34:32;;;;;;;5.97;4.88;;;26.50;99.40;;;;;;5125656;27;20227;-44
2022/08/19 12:37:02;;;;;;;6.10;5.47;;;26.50;99.50;;;;;;5096903;27;20210;-45
2022/08/19 12:39:33;;;;;;;6.25;4.85;;;26.50;99.50;;;;;;5131549;27;20422;-43
2022/08/19 12:42:01;;;;;;;6.13;5.28;;;26.50;99.60;;;;;;5129099;27;20237;-44
2022/08/19 12:44:30;;;;;;;5.65;4.68;;;26.60;99.80;;;;;;5110581;27;20198;-44
2022/08/19 12:47:00;;;;;;;5.25;4.75;;;26.70;99.80;;;;;;5129679;27;20198;-44
2022/08/19 12:49:30;;;;;;;5.78;5.10;;;26.70;99.80;;;;;;5129669;27;20257;-45
2022/08/19 12:52:24;;;;;;;7.60;5.03;;;26.80;99.80;;;;;;5116988;27;20683;-44
2022/08/19 12:54:55;;;;;;;8.85;6.03;;;26.80;99.60;;;;;;5118700;27;20213;-43
2022/08/19 12:57:27;;;;;;;6.47;4.72;;;26.90;99.80;;;;;;5128968;27;20201;-44
2022/08/19 13:00:10;;;;;;;5.75;5.07;;;26.90;99.70;;;;;;5128966;27;20255;-44
2022/08/19 13:02:39;;;;;;;4.93;4.43;;;27.00;99.60;;;;;;5129539;27;20198;-43
2022/08/19 13:05:12;;;;;;;9.02;4.45;;;27.00;99.70;;;;;;5131060;27;20220;-44
2022/08/19 13:07:40;;;;;;;5.32;4.10;;;27.10;99.60;;;;;;5131923;27;20210;-43
2022/08/19 13:10:11;;;;;;;4.15;3.75;;;27.10;99.50;;;;;;5128348;27;20254;-43
2022/08/19 13:12:40;;;;;;;5.95;3.30;;;27.20;99.50;;;;;;5094456;28;20659;-43
2022/08/19 13:15:11;;;;;;;5.53;4.10;;;27.20;99.60;;;;;;5092739;28;20230;-43
2022/08/19 13:17:41;;;;;;;4.97;3.50;;;27.30;99.40;;;;;;5122623;27;20208;-42
2022/08/19 13:20:13;;;;;;;4.75;3.72;;;27.30;99.40;;;;;;5100622;28;20737;-44